sensor_id;sensor_type;location;lat;lon;timestamp;P1;durP1;ratioP1;P2;durP2;ratioP2
22234;SDS011;11286;45.596;5.284;2022-07-23T00:01:57;10.85;;;9.95;;
22234;SDS011;11286;45.596;5.284;2022-07-23T00:04:23;11.15;;;9.90;;
22234;SDS011;11286;45.596;5.284;2022-07-23T00:06:48;11.73;;;10.55;;
22234;SDS011;11286;45.596;5.284;2022-07-23T00:09:14;11.85;;;10.00;;
22234;SDS011;11286;45.596;5.284;2022-07-23T00:11:40;11.10;;;10.10;;
22234;SDS011;11286;45.596;5.284;2022-07-23T00:14:05;11.38;;;10.07;;
22234;SDS011;11286;45.596;5.284;2022-07-23T00:16:31;11.27;;;10.20;;
22234;SDS011;11286;45.596;5.284;2022-07-23T00:18:56;10.88;;;9.80;;
22234;SDS011;11286;45.596;5.284;2022-07-23T00:21:22;11.15;;;10.10;;
22234;SDS011;11286;45.596;5.284;2022-07-23T00:23:48;11.48;;;9.98;;
22234;SDS011;11286;45.596;5.284;2022-07-23T00:26:13;11.38;;;10.07;;
22234;SDS011;11286;45.596;5.284;2022-07-23T00:28:39;11.02;;;10.02;;
22234;SDS011;11286;45.596;5.284;2022-07-23T00:31:05;10.70;;;9.70;;
22234;SDS011;11286;45.596;5.284;2022-07-23T00:33:30;23.85;;;12.38;;
22234;SDS011;11286;45.596;5.284;2022-07-23T00:35:56;20.40;;;13.10;;
22234;SDS011;11286;45.596;5.284;2022-07-23T00:38:21;17.88;;;13.05;;
22234;SDS011;11286;45.596;5.284;2022-07-23T00:40:47;15.50;;;13.50;;
22234;SDS011;11286;45.596;5.284;2022-07-23T00:43:12;17.85;;;13.32;;
22234;SDS011;11286;45.596;5.284;2022-07-23T00:45:38;16.42;;;13.93;;
22234;SDS011;11286;45.596;5.284;2022-07-23T00:48:04;15.20;;;13.55;;
22234;SDS011;11286;45.596;5.284;2022-07-23T00:50:29;15.70;;;14.13;;
22234;SDS011;11286;45.596;5.284;2022-07-23T00:52:55;19.25;;;14.75;;
22234;SDS011;11286;45.596;5.284;2022-07-23T00:55:21;16.42;;;13.77;;
22234;SDS011;11286;45.596;5.284;2022-07-23T00:57:46;18.20;;;14.15;;
22234;SDS011;11286;45.596;5.284;2022-07-23T01:00:13;16.65;;;14.18;;
22234;SDS011;11286;45.596;5.284;2022-07-23T01:02:39;20.63;;;14.32;;
22234;SDS011;11286;45.596;5.284;2022-07-23T01:05:06;20.10;;;14.38;;
22234;SDS011;11286;45.596;5.284;2022-07-23T01:07:32;15.98;;;14.40;;
22234;SDS011;11286;45.596;5.284;2022-07-23T01:09:58;16.20;;;13.10;;
22234;SDS011;11286;45.596;5.284;2022-07-23T01:12:24;18.23;;;15.35;;
22234;SDS011;11286;45.596;5.284;2022-07-23T01:14:53;17.00;;;15.32;;
22234;SDS011;11286;45.596;5.284;2022-07-23T01:17:20;18.10;;;15.32;;
22234;SDS011;11286;45.596;5.284;2022-07-23T01:19:45;17.95;;;16.15;;
22234;SDS011;11286;45.596;5.284;2022-07-23T01:22:11;17.85;;;16.00;;
22234;SDS011;11286;45.596;5.284;2022-07-23T01:24:36;17.60;;;15.80;;
22234;SDS011;11286;45.596;5.284;2022-07-23T01:27:02;17.98;;;16.17;;
22234;SDS011;11286;45.596;5.284;2022-07-23T01:29:30;18.83;;;16.98;;
22234;SDS011;11286;45.596;5.284;2022-07-23T01:31:56;18.80;;;16.85;;
22234;SDS011;11286;45.596;5.284;2022-07-23T01:34:21;18.35;;;16.40;;
22234;SDS011;11286;45.596;5.284;2022-07-23T01:36:47;18.98;;;17.05;;
22234;SDS011;11286;45.596;5.284;2022-07-23T01:39:12;19.38;;;17.27;;
22234;SDS011;11286;45.596;5.284;2022-07-23T01:41:38;19.77;;;17.77;;
22234;SDS011;11286;45.596;5.284;2022-07-23T01:44:04;19.13;;;17.23;;
22234;SDS011;11286;45.596;5.284;2022-07-23T01:46:29;18.55;;;16.75;;
22234;SDS011;11286;45.596;5.284;2022-07-23T01:48:55;18.35;;;16.52;;
22234;SDS011;11286;45.596;5.284;2022-07-23T01:51:21;20.45;;;17.40;;
22234;SDS011;11286;45.596;5.284;2022-07-23T01:53:46;19.35;;;17.27;;
22234;SDS011;11286;45.596;5.284;2022-07-23T01:56:12;18.30;;;16.58;;
22234;SDS011;11286;45.596;5.284;2022-07-23T01:58:40;19.42;;;17.42;;
22234;SDS011;11286;45.596;5.284;2022-07-23T02:01:05;19.77;;;17.88;;
22234;SDS011;11286;45.596;5.284;2022-07-23T02:03:31;19.45;;;17.42;;
22234;SDS011;11286;45.596;5.284;2022-07-23T02:05:57;20.23;;;18.10;;
22234;SDS011;11286;45.596;5.284;2022-07-23T02:08:22;19.30;;;17.40;;
22234;SDS011;11286;45.596;5.284;2022-07-23T02:10:48;19.05;;;17.15;;
22234;SDS011;11286;45.596;5.284;2022-07-23T02:13:16;20.02;;;17.48;;
22234;SDS011;11286;45.596;5.284;2022-07-23T02:15:42;20.30;;;17.90;;
22234;SDS011;11286;45.596;5.284;2022-07-23T02:18:08;19.55;;;17.65;;
22234;SDS011;11286;45.596;5.284;2022-07-23T02:20:34;19.75;;;17.70;;
22234;SDS011;11286;45.596;5.284;2022-07-23T02:23:00;20.23;;;18.23;;
22234;SDS011;11286;45.596;5.284;2022-07-23T02:25:25;22.40;;;19.10;;
22234;SDS011;11286;45.596;5.284;2022-07-23T02:27:51;21.52;;;18.60;;
22234;SDS011;11286;45.596;5.284;2022-07-23T02:30:17;21.65;;;19.55;;
22234;SDS011;11286;45.596;5.284;2022-07-23T02:32:42;21.75;;;19.40;;
22234;SDS011;11286;45.596;5.284;2022-07-23T02:35:08;21.38;;;19.38;;
22234;SDS011;11286;45.596;5.284;2022-07-23T02:37:33;21.13;;;19.08;;
22234;SDS011;11286;45.596;5.284;2022-07-23T02:39:59;21.65;;;18.80;;
22234;SDS011;11286;45.596;5.284;2022-07-23T02:42:26;22.10;;;19.98;;
22234;SDS011;11286;45.596;5.284;2022-07-23T02:44:51;20.95;;;18.98;;
22234;SDS011;11286;45.596;5.284;2022-07-23T02:47:17;22.63;;;20.17;;
22234;SDS011;11286;45.596;5.284;2022-07-23T02:49:43;22.48;;;20.30;;
22234;SDS011;11286;45.596;5.284;2022-07-23T02:52:08;21.38;;;19.17;;
22234;SDS011;11286;45.596;5.284;2022-07-23T02:54:37;23.15;;;20.73;;
22234;SDS011;11286;45.596;5.284;2022-07-23T02:57:03;21.95;;;19.90;;
22234;SDS011;11286;45.596;5.284;2022-07-23T02:59:29;21.73;;;19.73;;
22234;SDS011;11286;45.596;5.284;2022-07-23T03:01:55;24.05;;;19.85;;
22234;SDS011;11286;45.596;5.284;2022-07-23T03:04:21;21.80;;;19.90;;
22234;SDS011;11286;45.596;5.284;2022-07-23T03:06:46;22.30;;;20.20;;
22234;SDS011;11286;45.596;5.284;2022-07-23T03:09:12;21.60;;;19.50;;
22234;SDS011;11286;45.596;5.284;2022-07-23T03:11:37;22.27;;;19.95;;
22234;SDS011;11286;45.596;5.284;2022-07-23T03:14:03;20.75;;;18.55;;
22234;SDS011;11286;45.596;5.284;2022-07-23T03:16:29;21.00;;;19.10;;
22234;SDS011;11286;45.596;5.284;2022-07-23T03:18:54;21.92;;;20.13;;
22234;SDS011;11286;45.596;5.284;2022-07-23T03:21:20;21.00;;;18.58;;
22234;SDS011;11286;45.596;5.284;2022-07-23T03:23:45;21.00;;;18.95;;
22234;SDS011;11286;45.596;5.284;2022-07-23T03:26:11;20.45;;;18.48;;
22234;SDS011;11286;45.596;5.284;2022-07-23T03:28:36;20.52;;;18.42;;
22234;SDS011;11286;45.596;5.284;2022-07-23T03:31:02;19.60;;;17.80;;
22234;SDS011;11286;45.596;5.284;2022-07-23T03:33:28;20.38;;;18.23;;
22234;SDS011;11286;45.596;5.284;2022-07-23T03:35:53;19.60;;;17.45;;
22234;SDS011;11286;45.596;5.284;2022-07-23T03:38:19;17.35;;;15.85;;
22234;SDS011;11286;45.596;5.284;2022-07-23T03:40:44;16.30;;;14.80;;
22234;SDS011;11286;45.596;5.284;2022-07-23T03:43:10;15.48;;;13.98;;
22234;SDS011;11286;45.596;5.284;2022-07-23T03:45:36;16.15;;;14.65;;
22234;SDS011;11286;45.596;5.284;2022-07-23T03:48:01;16.38;;;14.85;;
22234;SDS011;11286;45.596;5.284;2022-07-23T03:50:27;16.15;;;14.57;;
22234;SDS011;11286;45.596;5.284;2022-07-23T03:52:53;16.20;;;14.55;;
22234;SDS011;11286;45.596;5.284;2022-07-23T03:55:19;15.88;;;14.23;;
22234;SDS011;11286;45.596;5.284;2022-07-23T03:57:44;15.73;;;14.27;;
22234;SDS011;11286;45.596;5.284;2022-07-23T04:00:10;16.23;;;14.77;;
22234;SDS011;11286;45.596;5.284;2022-07-23T04:02:38;17.15;;;15.48;;
22234;SDS011;11286;45.596;5.284;2022-07-23T04:05:04;16.40;;;14.95;;
22234;SDS011;11286;45.596;5.284;2022-07-23T04:07:30;17.23;;;15.63;;
22234;SDS011;11286;45.596;5.284;2022-07-23T04:09:56;15.82;;;14.32;;
22234;SDS011;11286;45.596;5.284;2022-07-23T04:12:22;17.77;;;16.08;;
22234;SDS011;11286;45.596;5.284;2022-07-23T04:14:48;17.55;;;15.88;;
22234;SDS011;11286;45.596;5.284;2022-07-23T04:17:14;17.17;;;15.40;;
22234;SDS011;11286;45.596;5.284;2022-07-23T04:19:40;16.40;;;14.90;;
22234;SDS011;11286;45.596;5.284;2022-07-23T04:22:08;16.55;;;15.05;;
22234;SDS011;11286;45.596;5.284;2022-07-23T04:24:34;16.40;;;14.93;;
22234;SDS011;11286;45.596;5.284;2022-07-23T04:27:00;16.55;;;14.88;;
22234;SDS011;11286;45.596;5.284;2022-07-23T04:29:26;16.95;;;14.48;;
22234;SDS011;11286;45.596;5.284;2022-07-23T04:31:51;15.52;;;14.10;;
22234;SDS011;11286;45.596;5.284;2022-07-23T04:34:17;15.63;;;14.23;;
22234;SDS011;11286;45.596;5.284;2022-07-23T04:36:43;16.10;;;14.70;;
22234;SDS011;11286;45.596;5.284;2022-07-23T04:39:08;15.10;;;13.80;;
22234;SDS011;11286;45.596;5.284;2022-07-23T04:41:34;15.95;;;14.30;;
22234;SDS011;11286;45.596;5.284;2022-07-23T04:44:00;16.15;;;14.75;;
22234;SDS011;11286;45.596;5.284;2022-07-23T04:46:26;15.88;;;14.27;;
22234;SDS011;11286;45.596;5.284;2022-07-23T04:48:52;15.32;;;13.77;;
22234;SDS011;11286;45.596;5.284;2022-07-23T04:51:18;15.30;;;13.80;;
22234;SDS011;11286;45.596;5.284;2022-07-23T04:53:44;15.30;;;13.80;;
22234;SDS011;11286;45.596;5.284;2022-07-23T04:56:10;15.00;;;13.80;;
22234;SDS011;11286;45.596;5.284;2022-07-23T04:58:35;14.82;;;13.43;;
22234;SDS011;11286;45.596;5.284;2022-07-23T05:01:01;15.23;;;13.77;;
22234;SDS011;11286;45.596;5.284;2022-07-23T05:03:27;15.73;;;14.23;;
22234;SDS011;11286;45.596;5.284;2022-07-23T05:05:53;14.20;;;12.80;;
22234;SDS011;11286;45.596;5.284;2022-07-23T05:08:19;14.15;;;12.90;;
22234;SDS011;11286;45.596;5.284;2022-07-23T05:10:44;14.55;;;13.35;;
22234;SDS011;11286;45.596;5.284;2022-07-23T05:13:10;14.25;;;13.07;;
22234;SDS011;11286;45.596;5.284;2022-07-23T05:15:36;14.13;;;12.88;;
22234;SDS011;11286;45.596;5.284;2022-07-23T05:18:01;13.73;;;12.52;;
22234;SDS011;11286;45.596;5.284;2022-07-23T05:20:27;14.30;;;13.10;;
22234;SDS011;11286;45.596;5.284;2022-07-23T05:22:53;15.18;;;13.60;;
22234;SDS011;11286;45.596;5.284;2022-07-23T05:25:19;18.45;;;14.23;;
22234;SDS011;11286;45.596;5.284;2022-07-23T05:27:45;14.55;;;13.02;;
22234;SDS011;11286;45.596;5.284;2022-07-23T05:30:10;17.35;;;13.23;;
22234;SDS011;11286;45.596;5.284;2022-07-23T05:32:36;14.65;;;13.15;;
22234;SDS011;11286;45.596;5.284;2022-07-23T05:35:02;15.68;;;14.18;;
22234;SDS011;11286;45.596;5.284;2022-07-23T05:37:31;14.93;;;13.52;;
22234;SDS011;11286;45.596;5.284;2022-07-23T05:40:03;16.65;;;14.95;;
22234;SDS011;11286;45.596;5.284;2022-07-23T05:42:32;15.65;;;14.15;;
22234;SDS011;11286;45.596;5.284;2022-07-23T05:44:58;16.20;;;14.63;;
22234;SDS011;11286;45.596;5.284;2022-07-23T05:47:24;16.63;;;15.02;;
22234;SDS011;11286;45.596;5.284;2022-07-23T05:49:50;17.00;;;15.40;;
22234;SDS011;11286;45.596;5.284;2022-07-23T05:52:15;16.85;;;15.00;;
22234;SDS011;11286;45.596;5.284;2022-07-23T05:54:41;17.60;;;15.85;;
22234;SDS011;11286;45.596;5.284;2022-07-23T05:57:06;17.10;;;15.55;;
22234;SDS011;11286;45.596;5.284;2022-07-23T05:59:32;17.38;;;15.85;;
22234;SDS011;11286;45.596;5.284;2022-07-23T06:01:58;17.00;;;15.15;;
22234;SDS011;11286;45.596;5.284;2022-07-23T06:04:23;17.45;;;15.77;;
22234;SDS011;11286;45.596;5.284;2022-07-23T06:06:49;15.52;;;14.20;;
22234;SDS011;11286;45.596;5.284;2022-07-23T06:09:15;16.10;;;14.60;;
22234;SDS011;11286;45.596;5.284;2022-07-23T06:11:40;14.63;;;13.23;;
22234;SDS011;11286;45.596;5.284;2022-07-23T06:14:06;13.68;;;12.38;;
22234;SDS011;11286;45.596;5.284;2022-07-23T06:16:32;13.93;;;12.73;;
22234;SDS011;11286;45.596;5.284;2022-07-23T06:18:57;14.32;;;13.00;;
22234;SDS011;11286;45.596;5.284;2022-07-23T06:21:23;14.43;;;12.93;;
22234;SDS011;11286;45.596;5.284;2022-07-23T06:23:49;14.10;;;12.80;;
22234;SDS011;11286;45.596;5.284;2022-07-23T06:26:14;13.95;;;12.45;;
22234;SDS011;11286;45.596;5.284;2022-07-23T06:28:40;13.75;;;12.63;;
22234;SDS011;11286;45.596;5.284;2022-07-23T06:31:06;13.85;;;12.63;;
22234;SDS011;11286;45.596;5.284;2022-07-23T06:33:31;15.48;;;13.88;;
22234;SDS011;11286;45.596;5.284;2022-07-23T06:35:58;15.13;;;13.82;;
22234;SDS011;11286;45.596;5.284;2022-07-23T06:38:24;14.63;;;13.40;;
22234;SDS011;11286;45.596;5.284;2022-07-23T06:40:49;14.50;;;13.10;;
22234;SDS011;11286;45.596;5.284;2022-07-23T06:43:15;14.30;;;12.95;;
22234;SDS011;11286;45.596;5.284;2022-07-23T06:45:41;13.55;;;12.25;;
22234;SDS011;11286;45.596;5.284;2022-07-23T06:48:06;13.60;;;12.40;;
22234;SDS011;11286;45.596;5.284;2022-07-23T06:50:32;14.77;;;13.43;;
22234;SDS011;11286;45.596;5.284;2022-07-23T06:52:58;15.60;;;13.25;;
22234;SDS011;11286;45.596;5.284;2022-07-23T06:55:23;13.57;;;12.20;;
22234;SDS011;11286;45.596;5.284;2022-07-23T06:57:49;14.40;;;12.90;;
22234;SDS011;11286;45.596;5.284;2022-07-23T07:00:15;13.93;;;12.60;;
22234;SDS011;11286;45.596;5.284;2022-07-23T07:02:40;13.48;;;12.07;;
22234;SDS011;11286;45.596;5.284;2022-07-23T07:05:06;12.98;;;11.75;;
22234;SDS011;11286;45.596;5.284;2022-07-23T07:07:32;13.65;;;11.93;;
22234;SDS011;11286;45.596;5.284;2022-07-23T07:09:58;13.52;;;12.38;;
22234;SDS011;11286;45.596;5.284;2022-07-23T07:12:24;13.25;;;12.05;;
22234;SDS011;11286;45.596;5.284;2022-07-23T07:14:50;13.98;;;12.57;;
22234;SDS011;11286;45.596;5.284;2022-07-23T07:17:15;13.07;;;11.98;;
22234;SDS011;11286;45.596;5.284;2022-07-23T07:19:41;12.32;;;11.25;;
22234;SDS011;11286;45.596;5.284;2022-07-23T07:22:07;13.32;;;12.07;;
22234;SDS011;11286;45.596;5.284;2022-07-23T07:24:32;12.80;;;11.63;;
22234;SDS011;11286;45.596;5.284;2022-07-23T07:26:58;12.75;;;11.65;;
22234;SDS011;11286;45.596;5.284;2022-07-23T07:29:24;13.00;;;11.80;;
22234;SDS011;11286;45.596;5.284;2022-07-23T07:31:49;12.85;;;11.63;;
22234;SDS011;11286;45.596;5.284;2022-07-23T07:34:15;12.77;;;11.52;;
22234;SDS011;11286;45.596;5.284;2022-07-23T07:36:40;12.80;;;11.52;;
22234;SDS011;11286;45.596;5.284;2022-07-23T07:39:08;12.82;;;11.52;;
22234;SDS011;11286;45.596;5.284;2022-07-23T07:41:35;12.25;;;11.07;;
22234;SDS011;11286;45.596;5.284;2022-07-23T07:44:01;12.57;;;11.43;;
22234;SDS011;11286;45.596;5.284;2022-07-23T07:46:27;12.30;;;11.13;;
22234;SDS011;11286;45.596;5.284;2022-07-23T07:48:53;12.80;;;11.60;;
22234;SDS011;11286;45.596;5.284;2022-07-23T07:51:19;12.00;;;10.90;;
22234;SDS011;11286;45.596;5.284;2022-07-23T07:53:44;11.77;;;10.77;;
22234;SDS011;11286;45.596;5.284;2022-07-23T07:56:10;12.18;;;11.07;;
22234;SDS011;11286;45.596;5.284;2022-07-23T07:58:36;12.73;;;11.45;;
22234;SDS011;11286;45.596;5.284;2022-07-23T08:01:01;13.57;;;12.18;;
22234;SDS011;11286;45.596;5.284;2022-07-23T08:03:27;12.77;;;11.65;;
22234;SDS011;11286;45.596;5.284;2022-07-23T08:05:53;15.07;;;12.65;;
22234;SDS011;11286;45.596;5.284;2022-07-23T08:08:19;12.95;;;11.73;;
22234;SDS011;11286;45.596;5.284;2022-07-23T08:10:44;15.02;;;11.98;;
22234;SDS011;11286;45.596;5.284;2022-07-23T08:13:12;13.05;;;11.75;;
22234;SDS011;11286;45.596;5.284;2022-07-23T08:15:39;13.80;;;12.30;;
22234;SDS011;11286;45.596;5.284;2022-07-23T08:18:06;13.40;;;12.30;;
22234;SDS011;11286;45.596;5.284;2022-07-23T08:20:31;13.18;;;11.98;;
22234;SDS011;11286;45.596;5.284;2022-07-23T08:22:58;13.13;;;12.00;;
22234;SDS011;11286;45.596;5.284;2022-07-23T08:25:31;13.07;;;11.32;;
22234;SDS011;11286;45.596;5.284;2022-07-23T08:27:58;12.40;;;11.13;;
22234;SDS011;11286;45.596;5.284;2022-07-23T08:30:25;12.90;;;11.45;;
22234;SDS011;11286;45.596;5.284;2022-07-23T08:32:56;12.45;;;11.25;;
22234;SDS011;11286;45.596;5.284;2022-07-23T08:35:32;12.77;;;11.48;;
22234;SDS011;11286;45.596;5.284;2022-07-23T08:37:59;12.00;;;10.73;;
22234;SDS011;11286;45.596;5.284;2022-07-23T08:40:28;12.45;;;11.30;;
22234;SDS011;11286;45.596;5.284;2022-07-23T08:42:55;12.05;;;10.88;;
22234;SDS011;11286;45.596;5.284;2022-07-23T08:45:22;11.95;;;10.85;;
22234;SDS011;11286;45.596;5.284;2022-07-23T08:47:53;12.23;;;11.25;;
22234;SDS011;11286;45.596;5.284;2022-07-23T08:50:20;11.43;;;10.40;;
22234;SDS011;11286;45.596;5.284;2022-07-23T08:52:50;13.13;;;11.05;;
22234;SDS011;11286;45.596;5.284;2022-07-23T08:55:17;13.18;;;11.10;;
22234;SDS011;11286;45.596;5.284;2022-07-23T08:57:47;14.20;;;11.85;;
22234;SDS011;11286;45.596;5.284;2022-07-23T09:00:14;12.30;;;11.05;;
22234;SDS011;11286;45.596;5.284;2022-07-23T09:02:41;12.38;;;11.38;;
22234;SDS011;11286;45.596;5.284;2022-07-23T09:05:08;12.30;;;11.15;;
22234;SDS011;11286;45.596;5.284;2022-07-23T09:08:02;10.45;;;9.48;;
22234;SDS011;11286;45.596;5.284;2022-07-23T09:10:47;12.65;;;11.45;;
22234;SDS011;11286;45.596;5.284;2022-07-23T09:13:33;11.75;;;10.57;;
22234;SDS011;11286;45.596;5.284;2022-07-23T09:16:00;11.43;;;10.30;;
22234;SDS011;11286;45.596;5.284;2022-07-23T09:18:38;11.30;;;10.23;;
22234;SDS011;11286;45.596;5.284;2022-07-23T09:21:12;11.55;;;10.45;;
22234;SDS011;11286;45.596;5.284;2022-07-23T09:23:49;11.95;;;10.75;;
22234;SDS011;11286;45.596;5.284;2022-07-23T09:28:52;12.60;;;10.60;;
22234;SDS011;11286;45.596;5.284;2022-07-23T09:31:20;10.98;;;9.98;;
22234;SDS011;11286;45.596;5.284;2022-07-23T09:33:48;13.30;;;10.30;;
22234;SDS011;11286;45.596;5.284;2022-07-23T09:36:13;11.23;;;10.15;;
22234;SDS011;11286;45.596;5.284;2022-07-23T09:38:49;11.50;;;10.30;;
22234;SDS011;11286;45.596;5.284;2022-07-23T09:41:15;11.35;;;10.27;;
22234;SDS011;11286;45.596;5.284;2022-07-23T09:43:41;11.57;;;10.57;;
22234;SDS011;11286;45.596;5.284;2022-07-23T09:46:20;11.80;;;10.65;;
22234;SDS011;11286;45.596;5.284;2022-07-23T09:48:53;11.60;;;10.35;;
22234;SDS011;11286;45.596;5.284;2022-07-23T09:51:21;11.98;;;10.80;;
22234;SDS011;11286;45.596;5.284;2022-07-23T09:53:53;11.68;;;10.57;;
22234;SDS011;11286;45.596;5.284;2022-07-23T09:56:20;11.50;;;10.40;;
22234;SDS011;11286;45.596;5.284;2022-07-23T09:58:46;10.93;;;10.02;;
22234;SDS011;11286;45.596;5.284;2022-07-23T10:01:27;10.40;;;9.50;;
22234;SDS011;11286;45.596;5.284;2022-07-23T10:03:54;12.35;;;10.10;;
22234;SDS011;11286;45.596;5.284;2022-07-23T10:06:20;11.40;;;10.20;;
22234;SDS011;11286;45.596;5.284;2022-07-23T10:08:46;11.07;;;10.00;;
22234;SDS011;11286;45.596;5.284;2022-07-23T10:11:14;11.90;;;10.80;;
22234;SDS011;11286;45.596;5.284;2022-07-23T10:13:42;10.40;;;9.60;;
22234;SDS011;11286;45.596;5.284;2022-07-23T10:16:20;11.40;;;10.10;;
22234;SDS011;11286;45.596;5.284;2022-07-23T10:18:47;11.20;;;10.20;;
22234;SDS011;11286;45.596;5.284;2022-07-23T10:21:16;11.25;;;10.15;;
22234;SDS011;11286;45.596;5.284;2022-07-23T10:24:01;11.13;;;10.10;;
22234;SDS011;11286;45.596;5.284;2022-07-23T10:26:35;10.60;;;9.57;;
22234;SDS011;11286;45.596;5.284;2022-07-23T10:29:12;10.35;;;9.45;;
22234;SDS011;11286;45.596;5.284;2022-07-23T10:32:43;10.70;;;9.70;;
22234;SDS011;11286;45.596;5.284;2022-07-23T10:37:37;10.50;;;9.70;;
22234;SDS011;11286;45.596;5.284;2022-07-23T10:40:16;10.48;;;9.48;;
22234;SDS011;11286;45.596;5.284;2022-07-23T10:42:43;10.40;;;9.43;;
22234;SDS011;11286;45.596;5.284;2022-07-23T10:50:41;10.73;;;9.73;;
22234;SDS011;11286;45.596;5.284;2022-07-23T10:53:16;10.70;;;9.63;;
22234;SDS011;11286;45.596;5.284;2022-07-23T10:55:46;10.63;;;9.55;;
22234;SDS011;11286;45.596;5.284;2022-07-23T10:58:20;10.93;;;9.57;;
22234;SDS011;11286;45.596;5.284;2022-07-23T11:00:47;10.02;;;9.05;;
22234;SDS011;11286;45.596;5.284;2022-07-23T11:03:46;11.63;;;9.93;;
22234;SDS011;11286;45.596;5.284;2022-07-23T11:06:05;10.00;;;9.10;;
22234;SDS011;11286;45.596;5.284;2022-07-23T11:08:32;9.82;;;8.90;;
22234;SDS011;11286;45.596;5.284;2022-07-23T11:13:30;9.75;;;8.80;;
22234;SDS011;11286;45.596;5.284;2022-07-23T11:34:45;10.25;;;9.25;;
22234;SDS011;11286;45.596;5.284;2022-07-23T11:37:12;10.15;;;9.15;;
22234;SDS011;11286;45.596;5.284;2022-07-23T11:40:11;9.73;;;8.80;;
22234;SDS011;11286;45.596;5.284;2022-07-23T11:42:40;10.13;;;9.13;;
22234;SDS011;11286;45.596;5.284;2022-07-23T11:45:20;9.77;;;8.77;;
22234;SDS011;11286;45.596;5.284;2022-07-23T11:47:47;9.70;;;8.80;;
22234;SDS011;11286;45.596;5.284;2022-07-23T11:50:13;9.65;;;8.82;;
22234;SDS011;11286;45.596;5.284;2022-07-23T11:52:38;9.68;;;8.77;;
22234;SDS011;11286;45.596;5.284;2022-07-23T11:55:05;9.85;;;9.10;;
22234;SDS011;11286;45.596;5.284;2022-07-23T11:57:34;9.25;;;8.48;;
22234;SDS011;11286;45.596;5.284;2022-07-23T12:00:06;9.65;;;8.85;;
22234;SDS011;11286;45.596;5.284;2022-07-23T12:02:37;12.65;;;11.30;;
22234;SDS011;11286;45.596;5.284;2022-07-23T12:05:04;11.50;;;10.40;;
22234;SDS011;11286;45.596;5.284;2022-07-23T12:07:35;10.48;;;9.48;;
22234;SDS011;11286;45.596;5.284;2022-07-23T12:10:03;10.50;;;9.60;;
22234;SDS011;11286;45.596;5.284;2022-07-23T12:12:37;10.30;;;9.30;;
22234;SDS011;11286;45.596;5.284;2022-07-23T12:15:05;9.93;;;8.93;;
22234;SDS011;11286;45.596;5.284;2022-07-23T12:17:33;10.45;;;9.38;;
22234;SDS011;11286;45.596;5.284;2022-07-23T12:20:01;10.10;;;9.10;;
22234;SDS011;11286;45.596;5.284;2022-07-23T12:22:37;9.90;;;9.05;;
22234;SDS011;11286;45.596;5.284;2022-07-23T12:27:44;10.40;;;9.40;;
22234;SDS011;11286;45.596;5.284;2022-07-23T12:30:31;9.88;;;9.00;;
22234;SDS011;11286;45.596;5.284;2022-07-23T12:33:07;9.80;;;8.90;;
22234;SDS011;11286;45.596;5.284;2022-07-23T12:35:39;9.32;;;8.52;;
22234;SDS011;11286;45.596;5.284;2022-07-23T12:38:08;9.32;;;8.40;;
22234;SDS011;11286;45.596;5.284;2022-07-23T12:40:45;9.15;;;8.27;;
22234;SDS011;11286;45.596;5.284;2022-07-23T12:45:47;9.40;;;8.50;;
22234;SDS011;11286;45.596;5.284;2022-07-23T12:48:20;9.15;;;8.35;;
22234;SDS011;11286;45.596;5.284;2022-07-23T12:50:58;8.80;;;8.00;;
22234;SDS011;11286;45.596;5.284;2022-07-23T12:56:00;8.73;;;7.90;;
22234;SDS011;11286;45.596;5.284;2022-07-23T12:58:26;9.40;;;8.50;;
22234;SDS011;11286;45.596;5.284;2022-07-23T13:01:04;9.13;;;8.38;;
22234;SDS011;11286;45.596;5.284;2022-07-23T13:03:37;9.13;;;8.23;;
22234;SDS011;11286;45.596;5.284;2022-07-23T13:06:06;9.65;;;8.63;;
22234;SDS011;11286;45.596;5.284;2022-07-23T13:08:34;8.48;;;7.72;;
22234;SDS011;11286;45.596;5.284;2022-07-23T13:11:01;8.82;;;7.93;;
22234;SDS011;11286;45.596;5.284;2022-07-23T13:13:28;8.35;;;7.65;;
22234;SDS011;11286;45.596;5.284;2022-07-23T13:15:55;8.50;;;7.70;;
22234;SDS011;11286;45.596;5.284;2022-07-23T13:18:22;8.90;;;7.60;;
22234;SDS011;11286;45.596;5.284;2022-07-23T13:20:47;8.25;;;7.45;;
22234;SDS011;11286;45.596;5.284;2022-07-23T13:23:14;8.00;;;7.40;;
22234;SDS011;11286;45.596;5.284;2022-07-23T13:25:40;8.57;;;7.68;;
22234;SDS011;11286;45.596;5.284;2022-07-23T13:28:06;8.40;;;7.53;;
22234;SDS011;11286;45.596;5.284;2022-07-23T13:30:32;8.25;;;7.55;;
22234;SDS011;11286;45.596;5.284;2022-07-23T13:32:58;8.73;;;7.82;;
22234;SDS011;11286;45.596;5.284;2022-07-23T13:35:24;8.40;;;7.70;;
22234;SDS011;11286;45.596;5.284;2022-07-23T13:37:50;8.95;;;8.05;;
22234;SDS011;11286;45.596;5.284;2022-07-23T13:40:15;8.25;;;7.55;;
22234;SDS011;11286;45.596;5.284;2022-07-23T13:42:41;9.15;;;7.65;;
22234;SDS011;11286;45.596;5.284;2022-07-23T13:45:07;8.73;;;8.02;;
22234;SDS011;11286;45.596;5.284;2022-07-23T13:47:33;8.95;;;8.20;;
22234;SDS011;11286;45.596;5.284;2022-07-23T13:49:58;9.10;;;8.23;;
22234;SDS011;11286;45.596;5.284;2022-07-23T13:52:24;8.20;;;7.50;;
22234;SDS011;11286;45.596;5.284;2022-07-23T13:54:50;8.52;;;7.88;;
22234;SDS011;11286;45.596;5.284;2022-07-23T13:57:16;9.13;;;8.23;;
22234;SDS011;11286;45.596;5.284;2022-07-23T13:59:42;8.80;;;8.00;;
22234;SDS011;11286;45.596;5.284;2022-07-23T14:02:08;9.15;;;8.35;;
22234;SDS011;11286;45.596;5.284;2022-07-23T14:04:34;9.52;;;8.63;;
22234;SDS011;11286;45.596;5.284;2022-07-23T14:07:00;9.15;;;8.40;;
22234;SDS011;11286;45.596;5.284;2022-07-23T14:09:26;8.93;;;8.07;;
22234;SDS011;11286;45.596;5.284;2022-07-23T14:11:52;8.35;;;7.65;;
22234;SDS011;11286;45.596;5.284;2022-07-23T14:14:18;9.70;;;8.50;;
22234;SDS011;11286;45.596;5.284;2022-07-23T14:16:44;8.73;;;8.02;;
22234;SDS011;11286;45.596;5.284;2022-07-23T14:19:10;8.82;;;7.93;;
22234;SDS011;11286;45.596;5.284;2022-07-23T14:21:36;8.45;;;7.68;;
22234;SDS011;11286;45.596;5.284;2022-07-23T14:24:02;8.27;;;7.57;;
22234;SDS011;11286;45.596;5.284;2022-07-23T14:26:28;8.95;;;7.88;;
22234;SDS011;11286;45.596;5.284;2022-07-23T14:28:54;9.18;;;8.32;;
22234;SDS011;11286;45.596;5.284;2022-07-23T14:31:20;9.25;;;8.55;;
22234;SDS011;11286;45.596;5.284;2022-07-23T14:33:46;9.25;;;8.18;;
22234;SDS011;11286;45.596;5.284;2022-07-23T14:36:13;9.40;;;8.38;;
22234;SDS011;11286;45.596;5.284;2022-07-23T14:38:39;8.85;;;7.85;;
22234;SDS011;11286;45.596;5.284;2022-07-23T14:41:04;8.82;;;7.93;;
22234;SDS011;11286;45.596;5.284;2022-07-23T14:43:32;8.90;;;8.07;;
22234;SDS011;11286;45.596;5.284;2022-07-23T14:45:58;8.65;;;7.85;;
22234;SDS011;11286;45.596;5.284;2022-07-23T14:48:23;8.50;;;7.80;;
22234;SDS011;11286;45.596;5.284;2022-07-23T14:50:49;8.57;;;7.78;;
22234;SDS011;11286;45.596;5.284;2022-07-23T14:53:15;8.18;;;7.47;;
22234;SDS011;11286;45.596;5.284;2022-07-23T14:55:40;7.90;;;7.28;;
22234;SDS011;11286;45.596;5.284;2022-07-23T14:58:06;8.07;;;7.43;;
22234;SDS011;11286;45.596;5.284;2022-07-23T15:00:31;9.10;;;7.65;;
22234;SDS011;11286;45.596;5.284;2022-07-23T15:02:57;7.95;;;7.38;;
22234;SDS011;11286;45.596;5.284;2022-07-23T15:05:23;8.45;;;7.65;;
22234;SDS011;11286;45.596;5.284;2022-07-23T15:07:49;8.60;;;7.32;;
22234;SDS011;11286;45.596;5.284;2022-07-23T15:10:15;8.13;;;7.43;;